createdAt,value
2022-08-01T00:00:00.210Z,0
2022-08-01T00:05:00.193Z,0
2022-08-01T00:10:00.189Z,0
2022-08-01T00:15:00.205Z,0
2022-08-01T00:20:00.197Z,0
2022-08-01T00:25:00.184Z,0
2022-08-01T00:30:11.357Z,0
2022-08-01T00:35:00.178Z,0
2022-08-01T00:40:00.208Z,0
2022-08-01T00:45:00.179Z,0
2022-08-01T00:50:00.222Z,0
2022-08-01T00:55:00.184Z,0
2022-08-01T01:00:00.240Z,0
2022-08-01T01:05:00.165Z,0
2022-08-01T01:10:00.178Z,0
2022-08-01T01:15:00.195Z,0
2022-08-01T01:20:00.170Z,0
2022-08-01T01:25:00.206Z,0
2022-08-01T01:30:01.179Z,0
2022-08-01T01:35:00.222Z,0
2022-08-01T01:40:00.184Z,0
2022-08-01T01:45:00.166Z,0
2022-08-01T01:50:00.176Z,0
2022-08-01T01:55:00.191Z,0
2022-08-01T02:00:00.198Z,0
2022-08-01T02:05:00.217Z,0
2022-08-01T02:10:00.196Z,0
2022-08-01T02:15:00.198Z,0
2022-08-01T02:20:00.182Z,0
2022-08-01T02:25:00.196Z,0
2022-08-01T02:30:00.205Z,0
2022-08-01T02:35:00.165Z,0
2022-08-01T02:40:00.196Z,0
2022-08-01T02:45:00.185Z,0
2022-08-01T02:50:00.202Z,0
2022-08-01T02:55:00.179Z,0
2022-08-01T03:00:00.207Z,0
2022-08-01T03:05:00.180Z,0
2022-08-01T03:10:00.183Z,0
2022-08-01T03:15:00.195Z,0
2022-08-01T03:20:00.179Z,0
2022-08-01T03:25:00.184Z,0
2022-08-01T03:30:00.173Z,0
2022-08-01T03:35:00.181Z,0
2022-08-01T03:40:00.181Z,0
2022-08-01T03:45:00.197Z,0
2022-08-01T03:50:00.197Z,0
2022-08-01T03:55:00.190Z,0
2022-08-01T04:00:00.230Z,0
2022-08-01T04:05:00.193Z,0
2022-08-01T04:15:00.196Z,0
2022-08-01T04:20:00.190Z,0
2022-08-01T04:25:00.191Z,0
2022-08-01T04:30:00.225Z,0
2022-08-01T04:35:00.183Z,0
2022-08-01T04:40:00.198Z,0
2022-08-01T04:45:00.186Z,0
2022-08-01T04:50:00.188Z,0
2022-08-01T04:55:00.219Z,0
2022-08-01T05:00:00.226Z,0
2022-08-01T05:05:00.199Z,0
2022-08-01T05:10:00.186Z,0
2022-08-01T05:15:00.193Z,0
2022-08-01T05:20:00.199Z,0
2022-08-01T05:25:00.198Z,0
2022-08-01T05:30:00.182Z,0
2022-08-01T05:35:00.193Z,0
2022-08-01T05:40:00.213Z,0
2022-08-01T05:45:00.217Z,0
2022-08-01T05:50:00.196Z,1
2022-08-01T05:55:00.195Z,0
2022-08-01T06:00:00.224Z,0
2022-08-01T06:05:00.200Z,1
2022-08-01T06:10:00.186Z,1
2022-08-01T06:15:00.170Z,1
2022-08-01T06:20:00.202Z,1
2022-08-01T06:25:00.205Z,1
2022-08-01T06:30:00.195Z,1
2022-08-01T06:35:00.194Z,0
2022-08-01T06:40:00.189Z,0
2022-08-01T06:45:00.190Z,1
2022-08-01T06:50:00.196Z,1
2022-08-01T06:55:00.191Z,1
2022-08-01T07:00:00.246Z,1
2022-08-01T07:05:00.188Z,1
2022-08-01T07:10:00.191Z,1
2022-08-01T07:15:00.184Z,0
2022-08-01T07:20:00.191Z,1
2022-08-01T07:25:00.221Z,1
2022-08-01T07:35:00.338Z,0
2022-08-01T07:50:00.195Z,2
2022-08-01T07:55:00.158Z,1
2022-08-01T08:00:00.238Z,0
2022-08-01T08:05:00.179Z,1
2022-08-01T08:10:00.185Z,1
2022-08-01T08:15:00.187Z,2
2022-08-01T08:20:00.200Z,3
2022-08-01T08:25:00.835Z,1
2022-08-01T08:30:00.202Z,1
2022-08-01T08:35:00.182Z,1
2022-08-01T08:40:00.190Z,1
2022-08-01T08:45:00.183Z,2
2022-08-01T08:50:00.180Z,2
2022-08-01T08:55:00.223Z,2
2022-08-01T09:00:00.210Z,2
2022-08-01T09:05:00.184Z,2
2022-08-01T09:10:00.182Z,2
2022-08-01T09:15:00.166Z,1
2022-08-01T12:35:00.176Z,4
2022-08-01T12:40:00.211Z,3
2022-08-01T12:45:00.189Z,2
2022-08-01T12:50:00.184Z,2
2022-08-01T12:55:00.180Z,3
2022-08-01T13:00:00.203Z,7
2022-08-01T13:05:00.221Z,3
2022-08-01T13:10:00.205Z,7
2022-08-01T13:15:00.197Z,7
2022-08-01T13:20:00.175Z,7
2022-08-01T13:25:00.191Z,7
2022-08-01T13:30:00.191Z,6
2022-08-01T13:35:00.179Z,7
2022-08-01T13:40:00.232Z,3
2022-08-01T13:45:00.211Z,2
2022-08-01T13:50:00.330Z,6
2022-08-01T13:55:00.189Z,6
2022-08-01T14:00:00.226Z,7
2022-08-01T14:05:00.186Z,7
2022-08-01T14:10:18.698Z,6
2022-08-01T14:15:00.187Z,7
2022-08-01T14:20:00.187Z,6
2022-08-01T14:25:01.664Z,6
2022-08-01T14:30:03.503Z,6
2022-08-01T14:35:00.209Z,5
2022-08-01T14:40:00.165Z,5
2022-08-01T14:45:00.193Z,5
2022-08-01T14:50:00.188Z,5
2022-08-01T14:55:00.191Z,5
2022-08-01T15:00:00.432Z,5
2022-08-01T15:05:00.197Z,5
2022-08-01T15:10:00.329Z,4
2022-08-01T15:15:00.186Z,4
2022-08-01T15:20:00.215Z,4
2022-08-01T15:25:00.194Z,3
2022-08-01T15:30:00.217Z,4
2022-08-01T15:35:00.164Z,4
2022-08-01T15:40:00.201Z,4
2022-08-01T15:45:00.167Z,4
2022-08-01T15:50:00.204Z,4
2022-08-01T15:55:00.192Z,4
2022-08-01T16:00:00.249Z,4
2022-08-01T16:05:00.160Z,4
2022-08-01T16:10:00.195Z,4
2022-08-01T16:15:00.209Z,4
2022-08-01T16:20:00.195Z,2
2022-08-01T16:25:00.974Z,3
2022-08-01T16:30:00.223Z,3
2022-08-01T16:35:00.155Z,3
2022-08-01T16:40:00.180Z,3
2022-08-01T16:45:00.200Z,2
2022-08-01T16:50:00.179Z,2
2022-08-01T16:55:00.195Z,2
2022-08-01T17:00:00.205Z,2
2022-08-01T17:05:00.167Z,2
2022-08-01T17:10:00.181Z,2
2022-08-01T17:15:00.240Z,2
2022-08-01T17:20:00.172Z,1
2022-08-01T17:25:00.287Z,1
2022-08-01T17:30:00.207Z,1
2022-08-01T17:35:00.186Z,1
2022-08-01T17:40:03.406Z,1
2022-08-01T17:45:00.178Z,1
2022-08-01T17:50:00.257Z,1
2022-08-01T17:55:00.188Z,1
2022-08-01T18:00:00.231Z,1
2022-08-01T18:05:00.188Z,0
2022-08-01T18:10:00.995Z,0
2022-08-01T18:15:00.192Z,0
2022-08-01T18:20:00.193Z,0
2022-08-01T18:25:00.177Z,0
2022-08-01T18:30:00.185Z,0
2022-08-01T18:35:00.182Z,0
2022-08-01T18:40:00.182Z,0
2022-08-01T18:45:00.191Z,0
2022-08-01T18:50:00.206Z,0
2022-08-01T18:55:00.181Z,0
2022-08-01T19:00:00.206Z,0
2022-08-01T19:05:00.176Z,0
2022-08-01T19:10:00.195Z,0
2022-08-01T19:15:04.589Z,0
2022-08-01T19:20:00.187Z,0
2022-08-01T19:25:00.173Z,0
2022-08-01T19:30:00.203Z,0
2022-08-01T19:35:00.164Z,0
2022-08-01T19:40:00.220Z,0
2022-08-01T19:45:00.191Z,0
2022-08-01T19:50:00.193Z,0
2022-08-01T19:55:00.175Z,0
2022-08-01T20:00:00.228Z,0
2022-08-01T20:05:00.206Z,0
2022-08-01T20:10:00.183Z,0
2022-08-01T20:15:00.164Z,0
2022-08-01T20:25:00.214Z,0
2022-08-01T20:30:00.206Z,0
2022-08-01T20:35:00.199Z,0
2022-08-01T20:40:00.185Z,0
2022-08-01T20:45:00.175Z,0
2022-08-01T20:50:00.202Z,0
2022-08-01T20:55:00.191Z,0
2022-08-01T21:00:00.214Z,0
2022-08-01T21:05:00.204Z,0
2022-08-01T21:10:00.206Z,0
2022-08-01T21:15:00.189Z,0
2022-08-01T21:20:00.184Z,0
2022-08-01T21:25:00.185Z,0
2022-08-01T21:30:00.206Z,0
2022-08-01T21:35:00.189Z,0
2022-08-01T21:40:00.213Z,0
2022-08-01T21:45:00.200Z,0
2022-08-01T21:50:00.194Z,0
2022-08-01T21:55:00.179Z,0
2022-08-01T22:00:00.257Z,0
2022-08-01T22:05:00.185Z,0
2022-08-01T22:10:00.193Z,0
2022-08-01T22:15:00.199Z,0
2022-08-01T22:20:00.190Z,0
2022-08-01T22:25:00.227Z,0
2022-08-01T22:30:00.214Z,0
2022-08-01T22:35:00.255Z,0
2022-08-01T22:40:00.243Z,0
2022-08-01T22:45:00.232Z,0
2022-08-01T22:50:00.247Z,0
2022-08-01T22:55:00.231Z,0
2022-08-01T23:00:00.258Z,0
2022-08-01T23:05:00.195Z,0
2022-08-01T23:10:00.185Z,0
2022-08-01T23:15:00.197Z,0
2022-08-01T23:20:00.295Z,0
2022-08-01T23:25:05.148Z,0
2022-08-01T23:30:00.192Z,0
2022-08-01T23:35:00.197Z,0
2022-08-01T23:40:00.196Z,0
2022-08-01T23:45:00.190Z,0
2022-08-01T23:50:00.203Z,0
2022-08-01T23:55:07.847Z,0
